Time;durP1;ratioP1;P1;durP2;ratioP2;P2;SDS_P1;SDS_P2;PMS_P1;PMS_P2;Temp;Humidity;BMP_temperature;BMP_pressure;BME280_temperature;BME280_humidity;BME280_pressure;Samples;Min_cycle;Max_cycle;Signal;HPM_P1;HPM_P2
2021/06/29 00:01:09;;;;;;;3.88;2.22;;;23.20;68.30;;;;;;5068288;28;20021;-79
2021/06/29 00:03:35;;;;;;;3.00;1.70;;;23.20;68.50;;;;;;5050383;28;20039;-79
2021/06/29 00:06:00;;;;;;;5.65;2.13;;;23.10;68.60;;;;;;5050424;28;20036;-80
2021/06/29 00:08:26;;;;;;;5.72;2.28;;;23.10;68.90;;;;;;5068223;28;20593;-78
2021/06/29 00:10:52;;;;;;;5.60;2.53;;;23.10;69.30;;;;;;5050143;28;20111;-78
2021/06/29 00:13:18;;;;;;;6.88;2.35;;;23.00;69.50;;;;;;5068135;28;20047;-77
2021/06/29 00:15:44;;;;;;;6.75;2.67;;;22.90;69.50;;;;;;5050244;28;20025;-78
2021/06/29 00:18:10;;;;;;;5.72;2.45;;;22.90;69.50;;;;;;5068130;28;20032;-78
2021/06/29 00:20:36;;;;;;;5.90;2.40;;;22.90;69.70;;;;;;5050643;28;20086;-80
2021/06/29 00:23:03;;;;;;;6.93;2.15;;;22.90;69.80;;;;;;5068105;28;20033;-79
2021/06/29 00:25:28;;;;;;;6.07;2.40;;;22.90;69.80;;;;;;5050044;28;20036;-78
2021/06/29 00:27:54;;;;;;;5.22;1.85;;;22.90;69.70;;;;;;5050265;28;20071;-77
2021/06/29 00:30:20;;;;;;;3.42;2.53;;;22.90;69.50;;;;;;5068004;28;20032;-79
2021/06/29 00:32:46;;;;;;;3.42;1.92;;;22.90;69.30;;;;;;5068346;28;20502;-79
2021/06/29 00:35:12;;;;;;;6.45;2.50;;;22.90;69.40;;;;;;5050351;28;20082;-79
2021/06/29 00:37:38;;;;;;;6.47;2.28;;;22.90;69.50;;;;;;5050353;28;20032;-80
2021/06/29 00:40:06;;;;;;;5.63;2.15;;;22.90;69.90;;;;;;5068348;28;20025;-77
2021/06/29 00:42:31;;;;;;;4.22;2.50;;;22.90;70.10;;;;;;5067956;28;20056;-79
2021/06/29 00:44:57;;;;;;;5.97;2.25;;;22.80;70.20;;;;;;5067976;28;20076;-78
2021/06/29 00:47:23;;;;;;;6.57;2.25;;;22.70;70.40;;;;;;5049933;28;20025;-79
2021/06/29 00:49:49;;;;;;;6.80;2.47;;;22.80;70.60;;;;;;5050146;28;20031;-79
2021/06/29 00:52:15;;;;;;;3.90;2.20;;;22.70;70.60;;;;;;5053567;28;20032;-79
2021/06/29 00:54:42;;;;;;;5.00;2.40;;;22.70;70.70;;;;;;5053478;28;20074;-79
2021/06/29 00:57:09;;;;;;;4.68;1.80;;;22.70;70.90;;;;;;5071546;28;20041;-79
2021/06/29 00:59:37;;;;;;;8.05;3.03;;;22.60;71.00;;;;;;5071442;28;20096;-79
2021/06/29 01:02:03;;;;;;;2.97;2.30;;;22.60;71.30;;;;;;5071180;28;20632;-79
2021/06/29 01:04:28;;;;;;;4.55;2.20;;;22.60;71.60;;;;;;5053244;28;20029;-79
2021/06/29 01:06:54;;;;;;;4.45;2.10;;;22.60;71.70;;;;;;5053438;28;20138;-79
2021/06/29 01:09:20;;;;;;;6.25;2.15;;;22.50;71.80;;;;;;5053254;28;20519;-79
2021/06/29 01:11:46;;;;;;;8.65;1.75;;;22.50;71.80;;;;;;5053378;28;20483;-79
2021/06/29 01:14:14;;;;;;;3.67;2.33;;;22.40;72.10;;;;;;5070921;28;20035;-78
2021/06/29 01:16:40;;;;;;;3.20;2.55;;;22.40;72.20;;;;;;5071056;28;20033;-80
2021/06/29 01:19:06;;;;;;;3.65;2.10;;;22.40;72.30;;;;;;5052970;28;20028;-78
2021/06/29 01:21:41;;;;;;;4.63;2.10;;;22.30;72.50;;;;;;5052850;28;20037;-78
2021/06/29 01:24:18;;;;;;;3.75;2.40;;;22.30;72.60;;;;;;5070880;28;20028;-78
2021/06/29 01:27:00;;;;;;;7.72;2.17;;;22.40;72.60;;;;;;5052770;28;20033;-77
2021/06/29 01:29:40;;;;;;;4.13;2.03;;;22.40;72.50;;;;;;5070760;28;20439;-77
2021/06/29 01:32:11;;;;;;;4.13;2.20;;;22.40;72.50;;;;;;5052560;28;20055;-77
2021/06/29 01:34:36;;;;;;;5.70;2.25;;;22.40;72.50;;;;;;5070699;28;20414;-77
2021/06/29 01:37:02;;;;;;;4.80;2.33;;;22.40;72.70;;;;;;5052653;28;20498;-79
2021/06/29 01:39:28;;;;;;;3.20;1.85;;;22.40;72.80;;;;;;5052599;28;20036;-78
2021/06/29 01:41:53;;;;;;;5.20;3.33;;;22.30;72.90;;;;;;5052766;28;20401;-79
2021/06/29 01:44:41;;;;;;;3.38;2.13;;;22.30;73.00;;;;;;5070495;28;20413;-79
2021/06/29 01:47:10;;;;;;;3.17;2.00;;;22.20;73.10;;;;;;5069911;28;20421;-80
2021/06/29 01:49:35;;;;;;;9.07;2.17;;;22.20;73.20;;;;;;5070381;28;20492;-80
2021/06/29 01:52:01;;;;;;;2.90;2.30;;;22.20;73.20;;;;;;5052383;28;20037;-79
2021/06/29 01:54:27;;;;;;;9.45;2.50;;;22.20;73.30;;;;;;5070367;28;20029;-79
2021/06/29 01:56:53;;;;;;;5.28;2.08;;;22.20;73.30;;;;;;5070343;28;20101;-81
2021/06/29 01:59:21;;;;;;;7.18;2.03;;;22.20;73.40;;;;;;5052999;28;20536;-81
2021/06/29 02:01:46;;;;;;;5.22;2.38;;;22.20;73.40;;;;;;5070259;28;20016;-81
2021/06/29 02:04:13;;;;;;;3.13;1.92;;;22.20;73.30;;;;;;5052070;28;20035;-81
2021/06/29 02:06:40;;;;;;;4.15;2.20;;;22.20;73.30;;;;;;5070488;28;20504;-81
2021/06/29 02:09:08;;;;;;;5.10;2.00;;;22.10;73.50;;;;;;5052203;28;20396;-79
2021/06/29 02:11:38;;;;;;;3.78;1.90;;;22.10;73.60;;;;;;5069933;28;20025;-79
2021/06/29 02:14:05;;;;;;;10.77;2.92;;;22.10;73.70;;;;;;5051967;28;20412;-81
2021/06/29 02:16:31;;;;;;;3.38;1.95;;;22.00;73.60;;;;;;5070078;28;20029;-80
2021/06/29 02:18:56;;;;;;;5.28;2.00;;;22.00;73.60;;;;;;5069799;28;20032;-81
2021/06/29 02:21:22;;;;;;;7.70;1.73;;;22.00;73.60;;;;;;5052072;28;20070;-80
2021/06/29 02:23:48;;;;;;;5.78;1.85;;;22.00;73.70;;;;;;5051850;28;20070;-79
2021/06/29 02:26:14;;;;;;;3.80;1.80;;;22.00;73.70;;;;;;5069380;28;20044;-79
2021/06/29 02:28:39;;;;;;;6.00;2.22;;;22.00;73.90;;;;;;5052063;28;20098;-78
2021/06/29 02:31:05;;;;;;;3.58;2.05;;;21.90;74.20;;;;;;5051457;28;20052;-78
2021/06/29 02:33:31;;;;;;;3.03;2.25;;;21.80;74.80;;;;;;5051259;28;20027;-79
2021/06/29 02:35:56;;;;;;;5.70;2.28;;;21.80;74.70;;;;;;5051515;28;20028;-79
2021/06/29 02:38:26;;;;;;;4.35;2.00;;;21.80;74.50;;;;;;5069749;28;20104;-79
2021/06/29 02:40:52;;;;;;;6.60;2.30;;;21.80;74.50;;;;;;5051091;28;20516;-79
2021/06/29 02:43:17;;;;;;;2.72;2.30;;;21.80;74.50;;;;;;5051146;28;20055;-80
2021/06/29 02:45:44;;;;;;;7.95;2.65;;;21.80;74.30;;;;;;5050078;28;20043;-80
2021/06/29 02:48:10;;;;;;;5.10;2.42;;;21.80;74.10;;;;;;5049099;28;20028;-77
2021/06/29 02:50:36;;;;;;;3.90;2.33;;;21.80;73.90;;;;;;5067157;28;20029;-78
2021/06/29 02:53:03;;;;;;;7.40;2.17;;;21.80;74.00;;;;;;5049073;28;20507;-78
2021/06/29 02:55:29;;;;;;;4.28;2.25;;;21.90;74.00;;;;;;5066924;28;20516;-77
2021/06/29 02:57:54;;;;;;;8.65;2.63;;;21.90;74.00;;;;;;5049241;28;20067;-78
2021/06/29 03:00:21;;;;;;;5.57;1.80;;;21.90;73.80;;;;;;5067094;28;20047;-78
2021/06/29 03:02:47;;;;;;;4.75;2.05;;;22.00;73.80;;;;;;5050025;28;20397;-78
2021/06/29 03:05:14;;;;;;;5.22;2.05;;;21.90;73.80;;;;;;5068766;28;20037;-78
2021/06/29 03:07:40;;;;;;;5.78;1.80;;;21.90;73.60;;;;;;5069106;28;20025;-76
2021/06/29 03:10:07;;;;;;;6.72;1.77;;;21.90;73.50;;;;;;5069236;28;20119;-78
2021/06/29 03:12:33;;;;;;;5.88;1.83;;;21.90;73.20;;;;;;5068087;28;20039;-77
2021/06/29 03:15:01;;;;;;;5.03;2.58;;;21.80;73.10;;;;;;5050723;28;20263;-76
2021/06/29 03:17:27;;;;;;;4.72;2.13;;;21.90;73.40;;;;;;5068728;28;20471;-77
2021/06/29 03:19:53;;;;;;;3.22;1.92;;;21.90;73.30;;;;;;5050511;28;20040;-78
2021/06/29 03:22:19;;;;;;;3.88;2.42;;;21.90;73.20;;;;;;5050524;28;20124;-78
2021/06/29 03:24:45;;;;;;;3.33;1.88;;;21.90;73.30;;;;;;5068342;28;20037;-76
2021/06/29 03:27:11;;;;;;;4.60;2.45;;;22.00;73.40;;;;;;5050513;28;20032;-77
2021/06/29 03:29:38;;;;;;;5.00;1.98;;;22.00;73.30;;;;;;5050361;28;20021;-77
2021/06/29 03:32:05;;;;;;;3.95;2.20;;;22.00;73.30;;;;;;5068171;28;20612;-78
2021/06/29 03:34:30;;;;;;;4.80;2.20;;;22.00;73.30;;;;;;5050528;28;20033;-78
2021/06/29 03:36:56;;;;;;;3.03;2.13;;;22.00;73.40;;;;;;5068271;28;20040;-77
2021/06/29 03:39:22;;;;;;;5.22;2.17;;;22.00;73.40;;;;;;5050294;28;20497;-78
2021/06/29 03:41:48;;;;;;;3.15;1.75;;;22.00;73.50;;;;;;5050374;28;20036;-77
2021/06/29 03:44:14;;;;;;;2.95;2.00;;;22.10;73.70;;;;;;5068187;28;20029;-78
2021/06/29 03:46:40;;;;;;;3.40;2.08;;;22.10;73.80;;;;;;5050274;28;20058;-76
2021/06/29 03:49:06;;;;;;;8.25;2.33;;;22.10;73.70;;;;;;5050352;28;20485;-77
2021/06/29 03:51:32;;;;;;;4.38;2.65;;;22.10;73.60;;;;;;5050272;28;20454;-76
2021/06/29 03:53:57;;;;;;;5.90;2.20;;;22.20;73.50;;;;;;5050259;28;20052;-77
2021/06/29 03:56:24;;;;;;;8.75;2.42;;;22.30;73.30;;;;;;5050274;28;20046;-78
2021/06/29 03:58:54;;;;;;;5.82;2.63;;;22.40;73.00;;;;;;5050439;28;20074;-80
2021/06/29 04:01:20;;;;;;;5.10;2.00;;;22.50;72.70;;;;;;5063782;28;20056;-79
2021/06/29 04:03:47;;;;;;;5.15;2.05;;;22.70;72.30;;;;;;5050019;28;20064;-78
2021/06/29 04:06:13;;;;;;;3.15;2.13;;;22.90;71.80;;;;;;5050036;28;20037;-80
2021/06/29 04:08:39;;;;;;;8.35;2.60;;;23.20;71.10;;;;;;5067996;28;20019;-78
2021/06/29 04:11:05;;;;;;;11.48;2.40;;;23.60;70.20;;;;;;5049973;28;20028;-80
2021/06/29 04:13:30;;;;;;;8.88;2.58;;;23.90;69.20;;;;;;5067927;28;20485;-80
2021/06/29 04:15:56;;;;;;;3.85;2.50;;;24.20;67.90;;;;;;5068224;28;20028;-77
2021/06/29 04:18:21;;;;;;;8.82;2.47;;;24.40;66.70;;;;;;5067883;28;20030;-79
2021/06/29 04:20:47;;;;;;;3.97;2.20;;;24.70;66.30;;;;;;5067873;28;20039;-78
2021/06/29 04:23:13;;;;;;;7.22;2.40;;;24.90;64.70;;;;;;5067555;28;20031;-77
2021/06/29 04:25:38;;;;;;;9.27;2.42;;;25.00;64.40;;;;;;5069353;28;20492;-80
2021/06/29 04:28:04;;;;;;;3.67;2.30;;;25.10;63.40;;;;;;5070357;28;20052;-79
2021/06/29 04:30:30;;;;;;;4.40;2.38;;;25.10;64.00;;;;;;5049541;28;20036;-79
2021/06/29 04:32:56;;;;;;;4.50;2.60;;;25.00;63.40;;;;;;5070324;28;20036;-78
2021/06/29 04:35:22;;;;;;;6.38;2.17;;;24.80;63.80;;;;;;5070186;28;20020;-80
2021/06/29 04:37:48;;;;;;;4.95;2.60;;;24.70;64.20;;;;;;5070246;28;20024;-80
2021/06/29 04:40:14;;;;;;;5.85;2.70;;;24.80;64.30;;;;;;5052074;28;20038;-80
2021/06/29 04:42:39;;;;;;;7.43;2.70;;;25.00;64.00;;;;;;5052074;28;20025;-78
2021/06/29 04:45:06;;;;;;;7.35;3.00;;;25.10;63.50;;;;;;5070441;28;20033;-81
2021/06/29 04:47:39;;;;;;;9.50;2.60;;;25.20;63.80;;;;;;5070118;28;20035;-81
2021/06/29 04:50:05;;;;;;;10.15;2.45;;;25.10;63.70;;;;;;5066197;28;20032;-79
2021/06/29 04:52:32;;;;;;;5.18;2.42;;;25.20;63.70;;;;;;5053504;28;20021;-78
2021/06/29 04:54:58;;;;;;;8.68;3.22;;;25.30;63.50;;;;;;5071279;28;20632;-79
2021/06/29 04:57:24;;;;;;;4.97;2.53;;;25.40;63.40;;;;;;5053222;28;20031;-78
2021/06/29 04:59:49;;;;;;;4.72;2.25;;;25.40;63.50;;;;;;5071282;28;20805;-78
2021/06/29 05:02:15;;;;;;;4.63;2.60;;;25.40;64.20;;;;;;5071058;28;20062;-80
2021/06/29 05:04:41;;;;;;;2.97;2.25;;;25.50;63.40;;;;;;5053107;28;20489;-77
2021/06/29 05:07:06;;;;;;;5.10;2.40;;;25.60;63.70;;;;;;5070953;28;20111;-77
2021/06/29 05:09:32;;;;;;;10.82;2.97;;;25.60;63.40;;;;;;5053328;28;20060;-78
2021/06/29 05:11:58;;;;;;;3.55;2.53;;;25.60;63.60;;;;;;5071083;28;20082;-79
2021/06/29 05:14:23;;;;;;;4.43;2.55;;;25.60;63.40;;;;;;5053257;28;20397;-79
2021/06/29 05:16:49;;;;;;;7.78;2.50;;;25.60;63.30;;;;;;5052972;28;20400;-77
2021/06/29 05:19:15;;;;;;;4.30;3.05;;;25.70;63.40;;;;;;5070868;28;20645;-77
2021/06/29 05:21:40;;;;;;;6.05;2.47;;;25.70;63.10;;;;;;5070377;28;20556;-79
2021/06/29 05:24:06;;;;;;;9.60;2.70;;;25.60;63.30;;;;;;5070627;28;20033;-79
2021/06/29 05:26:32;;;;;;;7.82;2.55;;;25.70;63.20;;;;;;5052472;28;20036;-79
2021/06/29 05:28:57;;;;;;;5.88;2.78;;;26.00;63.00;;;;;;5049208;28;20118;-78
2021/06/29 05:31:23;;;;;;;7.97;2.30;;;26.10;62.80;;;;;;5052105;28;20040;-79
2021/06/29 05:33:49;;;;;;;6.32;2.97;;;26.30;62.30;;;;;;5070104;28;20025;-79
2021/06/29 05:36:14;;;;;;;10.00;3.00;;;26.30;62.40;;;;;;5067826;28;20025;-79
2021/06/29 05:38:40;;;;;;;5.15;2.65;;;26.40;62.20;;;;;;5069598;28;20034;-78
2021/06/29 05:41:06;;;;;;;5.00;2.60;;;26.60;61.40;;;;;;5059203;28;20406;-80
2021/06/29 05:43:31;;;;;;;5.65;2.10;;;26.80;60.80;;;;;;5069921;28;20032;-79
2021/06/29 05:45:57;;;;;;;6.63;2.55;;;26.90;60.80;;;;;;5069823;28;20036;-79
2021/06/29 05:48:23;;;;;;;9.18;2.50;;;27.00;60.90;;;;;;5057751;28;20493;-79
2021/06/29 05:50:49;;;;;;;15.18;2.80;;;27.30;60.20;;;;;;5052084;28;20033;-80
2021/06/29 05:53:15;;;;;;;5.22;2.70;;;27.60;59.30;;;;;;5060110;28;20024;-79
2021/06/29 05:55:40;;;;;;;5.55;3.05;;;27.90;58.40;;;;;;5051302;28;20110;-79
2021/06/29 05:58:06;;;;;;;4.82;3.10;;;28.20;57.20;;;;;;5048861;28;20025;-79
2021/06/29 06:00:32;;;;;;;5.25;2.67;;;28.70;56.20;;;;;;5048745;28;20029;-79
2021/06/29 06:02:57;;;;;;;6.15;2.65;;;29.60;53.60;;;;;;5050078;28;20445;-79
2021/06/29 06:05:23;;;;;;;4.03;2.67;;;30.30;52.20;;;;;;5049780;28;20083;-80
2021/06/29 06:07:49;;;;;;;7.35;2.70;;;31.30;48.40;;;;;;5050300;28;20029;-80
2021/06/29 06:10:14;;;;;;;4.05;2.30;;;31.80;47.30;;;;;;5048773;28;20033;-79
2021/06/29 06:12:40;;;;;;;5.28;2.95;;;32.40;46.30;;;;;;5049870;28;20591;-79
2021/06/29 06:15:07;;;;;;;10.05;2.50;;;33.10;44.10;;;;;;5050062;28;20141;-81
2021/06/29 06:17:37;;;;;;;6.07;2.40;;;33.70;42.80;;;;;;5048319;28;20028;-79
2021/06/29 06:20:05;;;;;;;5.95;2.65;;;33.60;41.90;;;;;;5049484;28;20028;-78
2021/06/29 06:22:30;;;;;;;8.90;2.92;;;34.00;41.90;;;;;;5049785;28;20060;-79
2021/06/29 06:24:58;;;;;;;6.25;2.42;;;34.40;41.00;;;;;;5049504;28;20068;-79
2021/06/29 06:27:23;;;;;;;14.73;2.85;;;35.20;39.80;;;;;;5048261;28;20025;-79
2021/06/29 06:29:49;;;;;;;70.03;4.72;;;35.50;38.70;;;;;;5048394;28;20181;-77
2021/06/29 06:32:15;;;;;;;18.58;2.95;;;35.60;39.30;;;;;;5048029;28;20128;-78
2021/06/29 06:34:40;;;;;;;4.63;2.70;;;35.70;38.10;;;;;;5047820;28;20128;-77
2021/06/29 06:37:06;;;;;;;3.15;2.55;;;35.80;37.50;;;;;;5048078;28;20067;-80
2021/06/29 06:39:32;;;;;;;3.72;2.58;;;36.00;37.70;;;;;;5048057;28;20032;-78
2021/06/29 06:41:57;;;;;;;5.60;2.58;;;36.10;37.90;;;;;;5048022;28;20036;-80
2021/06/29 06:44:24;;;;;;;4.35;2.20;;;36.40;37.40;;;;;;5050318;28;20028;-80
2021/06/29 06:46:50;;;;;;;3.33;2.30;;;36.50;37.20;;;;;;5068039;28;20392;-81
2021/06/29 06:49:15;;;;;;;7.05;2.55;;;36.40;37.40;;;;;;5067279;28;20029;-81
2021/06/29 06:51:41;;;;;;;3.95;2.08;;;36.40;36.60;;;;;;5067665;28;20095;-80
2021/06/29 06:54:07;;;;;;;3.30;2.47;;;35.90;37.50;;;;;;5067790;28;20020;-82
2021/06/29 06:56:32;;;;;;;6.35;2.33;;;36.20;37.90;;;;;;5046555;28;20013;-78
2021/06/29 06:58:58;;;;;;;7.55;2.63;;;36.50;36.90;;;;;;5047701;28;20037;-79
2021/06/29 07:01:24;;;;;;;12.70;2.50;;;36.50;37.10;;;;;;5048887;28;20405;-78
2021/06/29 07:03:49;;;;;;;4.47;2.38;;;36.50;37.20;;;;;;5050414;28;20036;-78
2021/06/29 07:06:15;;;;;;;3.35;2.30;;;36.30;37.40;;;;;;5047282;28;20409;-78
2021/06/29 07:08:43;;;;;;;4.05;2.67;;;36.60;37.70;;;;;;5050538;28;20039;-79
2021/06/29 07:11:09;;;;;;;4.10;2.13;;;36.60;36.80;;;;;;5068874;28;20032;-80
2021/06/29 07:13:35;;;;;;;8.98;2.55;;;35.70;37.60;;;;;;5068420;28;20021;-78
2021/06/29 07:16:01;;;;;;;5.15;2.25;;;35.80;38.30;;;;;;5068655;28;20021;-80
2021/06/29 07:18:26;;;;;;;2.97;2.50;;;36.20;37.90;;;;;;5068649;28;20033;-80
2021/06/29 07:20:52;;;;;;;4.85;2.55;;;36.00;38.90;;;;;;5068631;28;20055;-80
2021/06/29 07:23:19;;;;;;;5.45;2.60;;;36.20;38.30;;;;;;5068530;28;20073;-80
2021/06/29 07:25:45;;;;;;;7.57;2.72;;;36.00;39.10;;;;;;5068489;28;20115;-80
2021/06/29 07:28:12;;;;;;;10.35;2.75;;;36.10;38.90;;;;;;5068461;28;20543;-80
2021/06/29 07:30:39;;;;;;;4.00;2.35;;;36.40;38.00;;;;;;5050403;28;20537;-80
2021/06/29 07:33:06;;;;;;;14.80;2.60;;;36.90;37.50;;;;;;5068631;28;20684;-80
2021/06/29 07:35:33;;;;;;;3.95;2.45;;;36.90;36.70;;;;;;5050468;28;20029;-80
2021/06/29 07:38:01;;;;;;;5.70;2.40;;;37.00;36.80;;;;;;5068483;28;20041;-80
2021/06/29 07:40:29;;;;;;;6.38;2.90;;;36.90;37.40;;;;;;5050497;28;20093;-81
2021/06/29 07:42:56;;;;;;;6.80;3.75;;;36.50;37.30;;;;;;5068273;28;20031;-82
2021/06/29 07:45:22;;;;;;;5.97;3.17;;;36.60;37.20;;;;;;5068260;28;20028;-80
2021/06/29 07:47:47;;;;;;;6.43;2.83;;;36.60;37.90;;;;;;5068383;28;20028;-80
2021/06/29 07:50:13;;;;;;;5.93;2.30;;;36.40;38.10;;;;;;5050352;28;20025;-80
2021/06/29 07:52:39;;;;;;;10.23;2.65;;;36.20;38.00;;;;;;5068349;28;20025;-79
2021/06/29 07:55:06;;;;;;;5.85;2.50;;;36.00;38.20;;;;;;5050618;28;20024;-80
2021/06/29 07:57:32;;;;;;;6.68;2.28;;;36.10;38.70;;;;;;5050194;28;20170;-80
2021/06/29 07:59:58;;;;;;;6.80;2.35;;;36.40;38.10;;;;;;5052467;28;20105;-80
2021/06/29 08:02:24;;;;;;;8.57;2.42;;;36.50;38.10;;;;;;5054248;28;20568;-80
2021/06/29 08:04:50;;;;;;;4.53;2.47;;;36.50;38.20;;;;;;5072123;28;20029;-79
2021/06/29 08:07:15;;;;;;;8.60;3.45;;;36.60;38.20;;;;;;5072272;28;20040;-80
2021/06/29 08:09:42;;;;;;;6.13;2.75;;;37.00;36.90;;;;;;5054286;28;20020;-80
2021/06/29 08:12:08;;;;;;;5.20;2.17;;;36.70;37.00;;;;;;5054072;28;20130;-81
2021/06/29 08:14:36;;;;;;;8.55;2.80;;;36.90;36.70;;;;;;5054188;28;20503;-81
2021/06/29 08:17:02;;;;;;;2.60;1.98;;;37.10;36.70;;;;;;5054181;28;20078;-80
2021/06/29 08:19:28;;;;;;;5.43;2.08;;;37.20;36.60;;;;;;5071896;28;20481;-80
2021/06/29 08:21:55;;;;;;;9.73;2.53;;;37.40;36.20;;;;;;5071963;28;20060;-78
2021/06/29 08:24:20;;;;;;;6.28;2.42;;;37.60;34.50;;;;;;5053830;28;20032;-80
2021/06/29 08:26:46;;;;;;;10.68;2.70;;;37.80;35.40;;;;;;5071869;28;20024;-80
2021/06/29 08:29:12;;;;;;;15.15;2.42;;;37.90;35.50;;;;;;5053930;28;20036;-80
2021/06/29 08:31:38;;;;;;;13.68;3.70;;;37.90;34.20;;;;;;5071741;28;20425;-81
2021/06/29 08:34:04;;;;;;;11.50;2.92;;;37.70;33.40;;;;;;5071778;28;20427;-81
2021/06/29 08:36:31;;;;;;;4.65;3.05;;;37.30;34.30;;;;;;5071756;28;20036;-81
2021/06/29 08:38:58;;;;;;;6.70;2.53;;;37.60;34.50;;;;;;5053664;28;20396;-80
2021/06/29 08:41:23;;;;;;;7.85;2.90;;;37.70;33.80;;;;;;5071584;28;20116;-80
2021/06/29 08:43:51;;;;;;;3.63;2.30;;;37.60;32.60;;;;;;5053711;28;20108;-80
2021/06/29 08:46:17;;;;;;;4.45;2.17;;;37.70;33.50;;;;;;5071418;28;20071;-80
2021/06/29 08:48:43;;;;;;;6.35;2.10;;;38.00;32.70;;;;;;5053464;28;20505;-79
2021/06/29 08:51:09;;;;;;;12.40;2.50;;;38.10;32.40;;;;;;5053433;28;20038;-79
2021/06/29 08:53:36;;;;;;;4.38;2.55;;;38.40;33.70;;;;;;5053279;28;20029;-80
2021/06/29 08:56:04;;;;;;;7.78;2.58;;;38.70;32.80;;;;;;5053233;28;20467;-79
2021/06/29 08:58:33;;;;;;;5.68;2.75;;;38.70;32.50;;;;;;5053236;28;20370;-80
2021/06/29 09:01:00;;;;;;;4.85;2.38;;;38.70;32.10;;;;;;5053245;28;20064;-80
2021/06/29 09:03:26;;;;;;;5.95;2.42;;;38.40;32.90;;;;;;5071202;28;20024;-79
2021/06/29 09:05:53;;;;;;;3.95;2.47;;;38.40;31.90;;;;;;5053208;28;20570;-80
2021/06/29 09:08:24;;;;;;;5.72;2.33;;;38.60;31.50;;;;;;5053059;28;20025;-79
2021/06/29 09:11:22;;;;;;;6.50;3.20;;;39.20;31.10;;;;;;5069884;28;20036;-80
2021/06/29 09:14:11;;;;;;;9.45;2.40;;;39.70;29.50;;;;;;5026116;28;20428;-79
2021/06/29 09:16:36;;;;;;;6.00;2.67;;;39.70;29.50;;;;;;5070911;28;20016;-79
2021/06/29 09:19:02;;;;;;;6.22;2.28;;;39.60;29.90;;;;;;5070878;28;20405;-80
2021/06/29 09:21:34;;;;;;;3.90;2.58;;;39.80;31.00;;;;;;5070892;28;20033;-80
2021/06/29 09:24:00;;;;;;;3.58;2.72;;;40.00;30.10;;;;;;5046495;28;20053;-79
2021/06/29 09:26:27;;;;;;;10.05;3.08;;;40.10;29.60;;;;;;5057873;28;20506;-79
2021/06/29 09:28:54;;;;;;;9.05;2.58;;;40.20;29.80;;;;;;5032701;28;20029;-80
2021/06/29 09:31:27;;;;;;;4.03;2.65;;;39.60;30.60;;;;;;5050454;28;20049;-79
2021/06/29 09:33:55;;;;;;;9.32;3.00;;;39.30;30.60;;;;;;5032494;28;20410;-79
2021/06/29 09:36:25;;;;;;;6.43;2.80;;;39.30;31.60;;;;;;5051963;28;20079;-79
2021/06/29 09:38:53;;;;;;;7.13;2.83;;;39.30;30.60;;;;;;5052557;28;20033;-80
2021/06/29 09:41:23;;;;;;;9.93;2.17;;;39.40;30.30;;;;;;5052478;28;20085;-79
2021/06/29 09:43:55;;;;;;;7.82;2.28;;;39.40;30.50;;;;;;5070415;28;20028;-79
2021/06/29 09:46:23;;;;;;;6.68;2.33;;;39.50;30.10;;;;;;5052014;28;20142;-79
2021/06/29 09:48:54;;;;;;;7.85;2.08;;;39.40;29.90;;;;;;5072042;28;20394;-79
2021/06/29 09:51:29;;;;;;;11.32;2.03;;;39.60;29.90;;;;;;5053369;28;20070;-79
2021/06/29 09:53:58;;;;;;;3.92;2.35;;;40.00;28.80;;;;;;5053620;28;20139;-80
2021/06/29 09:56:26;;;;;;;4.35;2.13;;;40.30;28.70;;;;;;5074870;28;20048;-79
2021/06/29 09:58:57;;;;;;;3.22;1.75;;;39.80;28.80;;;;;;5070134;28;20033;-80
2021/06/29 10:01:30;;;;;;;2.78;2.20;;;40.00;29.40;;;;;;5051322;28;20047;-79
2021/06/29 10:04:03;;;;;;;6.95;2.45;;;40.20;29.00;;;;;;5071323;28;20036;-80
2021/06/29 10:06:32;;;;;;;3.85;1.98;;;40.00;29.00;;;;;;5049739;28;20398;-79
2021/06/29 10:09:09;;;;;;;6.63;2.00;;;39.20;29.40;;;;;;5074555;28;20504;-80
2021/06/29 10:11:38;;;;;;;4.85;2.10;;;38.30;30.50;;;;;;5050773;28;20033;-78
2021/06/29 10:14:14;;;;;;;14.48;2.28;;;37.60;31.60;;;;;;5043132;28;20111;-79
2021/06/29 10:16:43;;;;;;;5.65;3.00;;;37.10;32.50;;;;;;5047246;28;20048;-78
2021/06/29 10:21:48;;;;;;;4.55;2.03;;;36.70;32.70;;;;;;5047395;28;20045;-78
2021/06/29 10:24:17;;;;;;;6.25;2.20;;;36.60;33.20;;;;;;5048769;28;20037;-79
2021/06/29 10:26:44;;;;;;;12.65;2.40;;;36.50;33.00;;;;;;5048191;28;20035;-79
2021/06/29 10:29:12;;;;;;;7.18;2.10;;;36.00;33.90;;;;;;5047301;28;20041;-79
2021/06/29 10:31:42;;;;;;;3.90;2.40;;;35.70;34.00;;;;;;5048382;28;20131;-79
2021/06/29 10:34:09;;;;;;;6.68;2.53;;;35.30;34.80;;;;;;5048608;28;20068;-78
2021/06/29 10:36:39;;;;;;;5.55;2.15;;;35.00;35.90;;;;;;5042943;28;20531;-78
2021/06/29 10:39:07;;;;;;;5.07;2.20;;;35.00;35.90;;;;;;5048432;28;20517;-78
2021/06/29 10:41:40;;;;;;;12.52;2.28;;;35.30;35.50;;;;;;5046973;28;20052;-79
2021/06/29 10:44:16;;;;;;;10.57;2.22;;;35.40;35.00;;;;;;5047916;28;20036;-78
2021/06/29 10:46:43;;;;;;;;;;;35.60;34.40;;;;;;5048010;28;20037;-78
2021/06/29 10:49:29;;;;;;;6.80;1.88;;;35.60;34.10;;;;;;5047839;28;19908;-79
2021/06/29 10:51:57;;;;;;;9.30;2.17;;;35.50;34.10;;;;;;5048880;28;20029;-79
2021/06/29 10:54:42;;;;;;;15.25;2.35;;;35.20;34.00;;;;;;5047523;28;20513;-80
2021/06/29 10:57:12;;;;;;;7.18;1.95;;;34.80;34.50;;;;;;5047787;28;20036;-79
2021/06/29 10:59:39;;;;;;;5.15;2.47;;;34.70;35.20;;;;;;5049061;28;20017;-78
2021/06/29 11:02:07;;;;;;;3.03;1.70;;;34.70;35.60;;;;;;5048999;28;20033;-80
2021/06/29 11:04:54;;;;;;;7.07;2.33;;;34.40;34.40;;;;;;5047631;28;20126;-78
2021/06/29 11:07:25;;;;;;;7.40;2.13;;;34.30;35.40;;;;;;5047419;28;20040;-79
2021/06/29 11:09:58;;;;;;;4.70;2.00;;;34.30;36.10;;;;;;5047496;28;20024;-79
2021/06/29 11:12:30;;;;;;;5.43;2.42;;;34.40;36.50;;;;;;5047197;28;20081;-79
2021/06/29 11:15:00;;;;;;;3.30;2.08;;;34.50;35.30;;;;;;5047444;28;20021;-79
2021/06/29 11:18:00;;;;;;;6.60;2.10;;;34.70;35.90;;;;;;5047100;28;20032;-79
2021/06/29 11:20:44;;;;;;;4.82;2.30;;;34.80;36.50;;;;;;5026287;28;20120;-78
2021/06/29 11:23:28;;;;;;;2.90;2.00;;;34.80;36.60;;;;;;5047684;28;20035;-78
2021/06/29 11:25:57;;;;;;;11.70;2.50;;;35.00;36.80;;;;;;5048585;28;20036;-79
2021/06/29 11:28:29;;;;;;;6.65;1.90;;;34.90;36.00;;;;;;5047111;28;20061;-78
2021/06/29 11:31:10;;;;;;;3.25;1.88;;;34.70;36.50;;;;;;5047227;28;20095;-79
2021/06/29 11:33:58;;;;;;;4.10;2.30;;;34.60;36.90;;;;;;5046605;28;20033;-78
2021/06/29 11:36:24;;;;;;;3.17;1.88;;;34.60;37.10;;;;;;5048844;28;20563;-79
2021/06/29 11:38:55;;;;;;;7.10;2.33;;;34.80;37.10;;;;;;5047012;28;20032;-79
2021/06/29 11:41:36;;;;;;;10.32;2.20;;;34.90;36.70;;;;;;5048517;28;20021;-79
2021/06/29 11:44:02;;;;;;;7.80;2.42;;;34.70;37.00;;;;;;5048378;28;20025;-78
2021/06/29 11:46:48;;;;;;;7.75;2.13;;;34.60;36.30;;;;;;5048320;28;20087;-79
2021/06/29 11:49:15;;;;;;;8.60;2.20;;;34.70;36.90;;;;;;5047009;28;20542;-78
2021/06/29 11:51:56;;;;;;;8.30;2.00;;;34.60;37.00;;;;;;5047244;28;20048;-78
2021/06/29 11:54:43;;;;;;;10.02;2.47;;;34.50;36.80;;;;;;5048489;28;20013;-79
2021/06/29 11:57:41;;;;;;;3.72;1.95;;;34.20;38.00;;;;;;5047045;28;20036;-78
2021/06/29 12:00:18;;;;;;;4.63;2.35;;;34.00;38.30;;;;;;5046852;28;20037;-79
2021/06/29 12:02:44;;;;;;;4.05;2.00;;;34.20;38.60;;;;;;5046830;28;20564;-79
2021/06/29 12:05:18;;;;;;;9.98;1.90;;;34.40;38.70;;;;;;5046826;28;20037;-80
2021/06/29 12:07:50;;;;;;;6.47;2.00;;;34.60;37.40;;;;;;5046828;28;20064;-79
2021/06/29 12:10:20;;;;;;;4.50;2.10;;;34.70;37.40;;;;;;5048174;28;20107;-79
2021/06/29 12:12:47;;;;;;;4.93;1.80;;;34.80;36.80;;;;;;5046696;28;20037;-79
2021/06/29 12:15:16;;;;;;;11.25;2.17;;;34.80;36.00;;;;;;5046791;28;20027;-78
2021/06/29 12:17:55;;;;;;;14.00;2.85;;;34.80;36.10;;;;;;5046606;28;20028;-79
2021/06/29 12:20:24;;;;;;;6.55;2.05;;;34.80;37.00;;;;;;5046605;28;20523;-80
2021/06/29 12:22:51;;;;;;;3.63;2.08;;;34.80;37.20;;;;;;5046618;28;20417;-79
2021/06/29 12:25:22;;;;;;;8.60;2.35;;;34.70;37.00;;;;;;5046606;28;20048;-78
2021/06/29 12:27:59;;;;;;;6.47;2.10;;;34.60;37.70;;;;;;5046734;28;20116;-79
2021/06/29 12:30:31;;;;;;;7.43;2.30;;;34.60;37.50;;;;;;5048032;28;20025;-79
2021/06/29 12:32:59;;;;;;;7.45;2.33;;;34.60;37.10;;;;;;5046587;28;20131;-80
2021/06/29 12:35:30;;;;;;;4.25;1.90;;;34.40;36.70;;;;;;5046491;28;20025;-79
2021/06/29 12:37:57;;;;;;;5.22;1.80;;;34.40;36.80;;;;;;5046615;28;20494;-79
2021/06/29 12:40:25;;;;;;;3.47;1.77;;;34.40;36.60;;;;;;5046486;28;20032;-79
2021/06/29 12:42:51;;;;;;;6.57;1.60;;;34.50;36.30;;;;;;5046506;28;20033;-79
2021/06/29 12:45:18;;;;;;;4.07;1.42;;;34.80;34.70;;;;;;5048732;28;20052;-79
2021/06/29 12:47:45;;;;;;;4.43;1.88;;;34.90;33.70;;;;;;5051558;28;20028;-80
2021/06/29 12:50:11;;;;;;;3.47;1.40;;;35.00;32.90;;;;;;5051254;28;20017;-79
2021/06/29 12:52:36;;;;;;;7.13;2.17;;;35.10;33.90;;;;;;5051389;28;20060;-79